sensor_id;sensor_type;location;lat;lon;timestamp;pressure;altitude;pressure_sealevel;temperature;humidity
39341;BME280;25059;52.132;21.062;2023-05-16T01:00:16;99526.03;;;23.61;63.95
39341;BME280;25059;52.132;21.062;2023-05-16T01:03:04;99537.88;;;24.17;61.16
39341;BME280;25059;52.132;21.062;2023-05-16T01:05:48;99541.69;;;22.36;67.27
39341;BME280;25059;52.132;21.062;2023-05-16T01:08:33;99536.59;;;22.95;64.77
39341;BME280;25059;52.132;21.062;2023-05-16T01:11:24;99532.91;;;25.26;58.69
39341;BME280;25059;52.132;21.062;2023-05-16T01:14:11;99545.16;;;23.32;63.09
39341;BME280;25059;52.132;21.062;2023-05-16T01:17:07;99552.34;;;24.65;59.33
39341;BME280;25059;52.132;21.062;2023-05-16T01:20:01;99557.06;;;24.38;60.17
39341;BME280;25059;52.132;21.062;2023-05-16T01:23:26;99563.25;;;23.56;62.87
39341;BME280;25059;52.132;21.062;2023-05-16T01:26:27;99556.88;;;24.72;58.89
39341;BME280;25059;52.132;21.062;2023-05-16T01:29:47;99563.94;;;24.57;59.21
39341;BME280;25059;52.132;21.062;2023-05-16T01:32:31;99544.28;;;22.90;62.44
39341;BME280;25059;52.132;21.062;2023-05-16T01:35:16;99571.88;;;23.42;60.83
39341;BME280;25059;52.132;21.062;2023-05-16T01:38:23;99567.75;;;24.22;58.63
39341;BME280;25059;52.132;21.062;2023-05-16T01:41:21;99586.41;;;22.79;63.75
39341;BME280;25059;52.132;21.062;2023-05-16T01:44:19;99560.06;;;23.27;62.55
39341;BME280;25059;52.132;21.062;2023-05-16T01:47:11;99583.44;;;23.76;62.82
39341;BME280;25059;52.132;21.062;2023-05-16T01:50:01;99582.38;;;23.01;65.29
39341;BME280;25059;52.132;21.062;2023-05-16T01:52:56;99579.66;;;24.03;61.80
39341;BME280;25059;52.132;21.062;2023-05-16T01:55:44;99585.78;;;24.30;61.70
39341;BME280;25059;52.132;21.062;2023-05-16T01:58:32;99586.06;;;24.19;61.21
39341;BME280;25059;52.132;21.062;2023-05-16T02:01:17;99590.84;;;23.48;61.75
39341;BME280;25059;52.132;21.062;2023-05-16T02:04:02;99573.75;;;23.92;59.61
39341;BME280;25059;52.132;21.062;2023-05-16T02:06:47;99577.00;;;23.61;59.31
39341;BME280;25059;52.132;21.062;2023-05-16T02:09:31;99569.63;;;21.88;64.65
39341;BME280;25059;52.132;21.062;2023-05-16T02:12:16;99594.56;;;21.89;66.04
39341;BME280;25059;52.132;21.062;2023-05-16T02:15:01;99587.06;;;22.20;65.15
39341;BME280;25059;52.132;21.062;2023-05-16T02:17:46;99560.16;;;22.65;62.33
39341;BME280;25059;52.132;21.062;2023-05-16T02:20:31;99587.38;;;22.78;61.71
39341;BME280;25059;52.132;21.062;2023-05-16T02:23:16;99592.66;;;21.99;64.49
39341;BME280;25059;52.132;21.062;2023-05-16T02:26:00;99602.81;;;21.78;64.54
39341;BME280;25059;52.132;21.062;2023-05-16T02:28:45;99600.75;;;22.52;62.77
39341;BME280;25059;52.132;21.062;2023-05-16T02:31:32;99604.78;;;22.74;62.26
39341;BME280;25059;52.132;21.062;2023-05-16T02:34:18;99589.28;;;22.42;61.84
39341;BME280;25059;52.132;21.062;2023-05-16T02:37:03;99613.91;;;22.81;60.98
39341;BME280;25059;52.132;21.062;2023-05-16T02:39:48;99601.50;;;22.80;60.89
39341;BME280;25059;52.132;21.062;2023-05-16T02:42:32;99603.34;;;22.44;61.42
39341;BME280;25059;52.132;21.062;2023-05-16T02:45:17;99616.50;;;22.91;60.47
39341;BME280;25059;52.132;21.062;2023-05-16T02:48:01;99604.69;;;21.40;63.74
39341;BME280;25059;52.132;21.062;2023-05-16T02:50:46;99601.19;;;22.66;61.31
39341;BME280;25059;52.132;21.062;2023-05-16T02:53:30;99619.56;;;22.61;61.66
39341;BME280;25059;52.132;21.062;2023-05-16T02:56:15;99613.56;;;23.02;60.95
39341;BME280;25059;52.132;21.062;2023-05-16T02:59:00;99602.97;;;22.39;61.47
39341;BME280;25059;52.132;21.062;2023-05-16T03:01:44;99603.13;;;22.38;61.61
39341;BME280;25059;52.132;21.062;2023-05-16T03:04:29;99591.69;;;22.89;59.90
39341;BME280;25059;52.132;21.062;2023-05-16T03:07:14;99611.69;;;22.59;61.09
39341;BME280;25059;52.132;21.062;2023-05-16T03:09:58;99593.63;;;22.61;60.57
39341;BME280;25059;52.132;21.062;2023-05-16T03:12:43;99601.75;;;22.16;60.73
39341;BME280;25059;52.132;21.062;2023-05-16T03:15:27;99622.09;;;22.09;62.95
39341;BME280;25059;52.132;21.062;2023-05-16T03:18:12;99624.00;;;21.89;64.20
39341;BME280;25059;52.132;21.062;2023-05-16T03:20:56;99618.97;;;22.13;62.71
39341;BME280;25059;52.132;21.062;2023-05-16T03:23:42;99605.09;;;22.71;62.09
39341;BME280;25059;52.132;21.062;2023-05-16T03:26:26;99603.69;;;21.69;64.09
39341;BME280;25059;52.132;21.062;2023-05-16T03:29:11;99617.03;;;21.78;63.86
39341;BME280;25059;52.132;21.062;2023-05-16T03:31:56;99608.66;;;21.91;64.53
39341;BME280;25059;52.132;21.062;2023-05-16T03:34:40;99624.78;;;22.27;62.66
39341;BME280;25059;52.132;21.062;2023-05-16T03:37:25;99614.22;;;22.07;63.37
39341;BME280;25059;52.132;21.062;2023-05-16T03:40:10;99622.22;;;21.06;67.53
39341;BME280;25059;52.132;21.062;2023-05-16T03:42:55;99609.13;;;21.22;67.60
39341;BME280;25059;52.132;21.062;2023-05-16T03:45:39;99636.03;;;22.30;63.68
39341;BME280;25059;52.132;21.062;2023-05-16T03:48:24;99620.34;;;21.63;65.30
39341;BME280;25059;52.132;21.062;2023-05-16T03:51:08;99622.03;;;21.26;66.29
39341;BME280;25059;52.132;21.062;2023-05-16T03:53:53;99627.16;;;22.12;64.92
39341;BME280;25059;52.132;21.062;2023-05-16T03:56:38;99630.50;;;21.86;64.04
39341;BME280;25059;52.132;21.062;2023-05-16T03:59:22;99623.78;;;22.45;62.87
39341;BME280;25059;52.132;21.062;2023-05-16T04:02:07;99627.94;;;22.40;63.84
39341;BME280;25059;52.132;21.062;2023-05-16T04:04:52;99612.31;;;21.63;64.73
39341;BME280;25059;52.132;21.062;2023-05-16T04:07:37;99622.50;;;22.49;62.13
39341;BME280;25059;52.132;21.062;2023-05-16T04:10:21;99631.09;;;21.53;64.82
39341;BME280;25059;52.132;21.062;2023-05-16T04:13:06;99617.69;;;21.63;64.38
39341;BME280;25059;52.132;21.062;2023-05-16T04:15:50;99614.81;;;22.72;61.52
39341;BME280;25059;52.132;21.062;2023-05-16T04:18:35;99626.41;;;23.50;59.31
39341;BME280;25059;52.132;21.062;2023-05-16T04:21:19;99631.09;;;23.48;59.64
39341;BME280;25059;52.132;21.062;2023-05-16T04:24:04;99617.56;;;22.98;61.39
39341;BME280;25059;52.132;21.062;2023-05-16T04:26:49;99648.16;;;21.42;65.89
39341;BME280;25059;52.132;21.062;2023-05-16T04:29:34;99623.38;;;23.19;60.62
39341;BME280;25059;52.132;21.062;2023-05-16T04:32:19;99648.47;;;23.10;60.99
39341;BME280;25059;52.132;21.062;2023-05-16T04:35:03;99642.31;;;22.39;61.47
39341;BME280;25059;52.132;21.062;2023-05-16T04:37:48;99630.09;;;23.49;59.84
39341;BME280;25059;52.132;21.062;2023-05-16T04:40:32;99624.50;;;23.09;60.93
39341;BME280;25059;52.132;21.062;2023-05-16T04:43:18;99627.06;;;23.44;60.14
39341;BME280;25059;52.132;21.062;2023-05-16T04:46:03;99631.97;;;22.44;61.91
39341;BME280;25059;52.132;21.062;2023-05-16T04:48:48;99633.31;;;23.87;58.84
39341;BME280;25059;52.132;21.062;2023-05-16T04:51:33;99647.19;;;23.74;58.28
39341;BME280;25059;52.132;21.062;2023-05-16T04:54:17;99648.41;;;23.88;57.93
39341;BME280;25059;52.132;21.062;2023-05-16T04:57:01;99636.44;;;23.74;57.48
39341;BME280;25059;52.132;21.062;2023-05-16T04:59:46;99666.78;;;21.99;62.20
39341;BME280;25059;52.132;21.062;2023-05-16T05:02:31;99659.72;;;23.66;58.01
39341;BME280;25059;52.132;21.062;2023-05-16T05:05:15;99657.34;;;22.85;59.03
39341;BME280;25059;52.132;21.062;2023-05-16T05:08:00;99636.78;;;22.76;59.36
39341;BME280;25059;52.132;21.062;2023-05-16T05:10:45;99645.94;;;22.02;61.01
39341;BME280;25059;52.132;21.062;2023-05-16T05:13:29;99662.28;;;22.27;60.92
39341;BME280;25059;52.132;21.062;2023-05-16T05:16:14;99658.38;;;24.62;55.92
39341;BME280;25059;52.132;21.062;2023-05-16T05:18:58;99657.78;;;22.63;59.04
39341;BME280;25059;52.132;21.062;2023-05-16T05:21:43;99667.41;;;22.38;60.37
39341;BME280;25059;52.132;21.062;2023-05-16T05:24:28;99670.75;;;23.89;56.59
39341;BME280;25059;52.132;21.062;2023-05-16T05:27:12;99673.47;;;22.40;60.04
39341;BME280;25059;52.132;21.062;2023-05-16T05:29:57;99691.66;;;22.81;59.01
39341;BME280;25059;52.132;21.062;2023-05-16T05:32:42;99681.94;;;23.76;56.34
39341;BME280;25059;52.132;21.062;2023-05-16T05:35:27;99683.53;;;23.95;55.80
39341;BME280;25059;52.132;21.062;2023-05-16T05:38:11;99689.63;;;22.48;59.50
39341;BME280;25059;52.132;21.062;2023-05-16T05:40:56;99661.78;;;23.72;57.38
39341;BME280;25059;52.132;21.062;2023-05-16T05:43:40;99659.94;;;24.23;55.33
39341;BME280;25059;52.132;21.062;2023-05-16T05:46:25;99664.84;;;23.85;56.42
39341;BME280;25059;52.132;21.062;2023-05-16T05:49:09;99703.19;;;22.64;57.26
39341;BME280;25059;52.132;21.062;2023-05-16T05:51:55;99696.31;;;22.79;58.85
39341;BME280;25059;52.132;21.062;2023-05-16T05:54:40;99690.66;;;22.82;58.42
39341;BME280;25059;52.132;21.062;2023-05-16T05:57:25;99708.34;;;23.37;57.96
39341;BME280;25059;52.132;21.062;2023-05-16T06:00:10;99713.44;;;24.00;56.80
39341;BME280;25059;52.132;21.062;2023-05-16T06:02:55;99716.13;;;23.22;56.83
39341;BME280;25059;52.132;21.062;2023-05-16T06:05:40;99706.75;;;24.54;53.96
39341;BME280;25059;52.132;21.062;2023-05-16T06:08:25;99716.19;;;25.48;52.79
39341;BME280;25059;52.132;21.062;2023-05-16T06:11:19;99735.38;;;25.44;52.35
39341;BME280;25059;52.132;21.062;2023-05-16T06:14:29;99748.16;;;25.59;51.75
39341;BME280;25059;52.132;21.062;2023-05-16T06:25:44;99752.94;;;24.15;51.67
39341;BME280;25059;52.132;21.062;2023-05-16T06:28:33;99719.66;;;24.51;51.06
39341;BME280;25059;52.132;21.062;2023-05-16T06:31:26;99770.84;;;24.91;52.30
39341;BME280;25059;52.132;21.062;2023-05-16T06:34:20;99763.81;;;25.55;50.91
39341;BME280;25059;52.132;21.062;2023-05-16T06:37:24;99739.03;;;24.70;51.34
39341;BME280;25059;52.132;21.062;2023-05-16T06:40:37;99779.72;;;26.84;48.52
39341;BME280;25059;52.132;21.062;2023-05-16T06:43:31;99766.84;;;25.52;49.21
39341;BME280;25059;52.132;21.062;2023-05-16T06:46:41;99805.53;;;25.51;49.12
39341;BME280;25059;52.132;21.062;2023-05-16T06:49:30;99814.69;;;24.33;51.04
39341;BME280;25059;52.132;21.062;2023-05-16T06:52:24;99744.56;;;24.61;49.70
39341;BME280;25059;52.132;21.062;2023-05-16T06:55:24;99818.38;;;24.06;51.09
39341;BME280;25059;52.132;21.062;2023-05-16T06:58:20;99823.41;;;23.40;50.64
39341;BME280;25059;52.132;21.062;2023-05-16T07:14:49;99825.59;;;24.74;47.03
39341;BME280;25059;52.132;21.062;2023-05-16T07:18:09;99814.84;;;24.74;47.56
39341;BME280;25059;52.132;21.062;2023-05-16T07:21:03;99854.34;;;24.82;48.16
39341;BME280;25059;52.132;21.062;2023-05-16T07:24:02;99855.19;;;25.40;46.82
39341;BME280;25059;52.132;21.062;2023-05-16T07:26:50;99791.06;;;25.85;45.95
39341;BME280;25059;52.132;21.062;2023-05-16T07:30:04;99821.75;;;24.08;48.61
39341;BME280;25059;52.132;21.062;2023-05-16T07:33:22;99795.28;;;25.47;45.85
39341;BME280;25059;52.132;21.062;2023-05-16T07:36:07;99897.94;;;26.80;45.80
39341;BME280;25059;52.132;21.062;2023-05-16T07:39:08;99866.38;;;24.61;46.98
39341;BME280;25059;52.132;21.062;2023-05-16T07:41:56;99896.84;;;25.12;47.37
39341;BME280;25059;52.132;21.062;2023-05-16T07:45:06;99854.00;;;25.59;45.63
39341;BME280;25059;52.132;21.062;2023-05-16T07:48:08;99867.09;;;25.30;45.24
39341;BME280;25059;52.132;21.062;2023-05-16T07:51:11;99908.63;;;24.43;47.79
39341;BME280;25059;52.132;21.062;2023-05-16T07:53:58;99892.16;;;26.91;44.59
39341;BME280;25059;52.132;21.062;2023-05-16T08:05:19;99911.03;;;25.38;47.00
39341;BME280;25059;52.132;21.062;2023-05-16T08:08:49;99914.56;;;25.39;46.33
39341;BME280;25059;52.132;21.062;2023-05-16T08:58:41;99874.72;;;27.64;40.37
39341;BME280;25059;52.132;21.062;2023-05-16T08:59:35;99905.44;;;27.63;40.03
39341;BME280;25059;52.132;21.062;2023-05-16T09:51:31;99979.59;;;30.53;36.71
39341;BME280;25059;52.132;21.062;2023-05-16T09:54:35;99981.78;;;30.65;35.46
39341;BME280;25059;52.132;21.062;2023-05-16T09:57:20;100003.72;;;28.68;37.14
39341;BME280;25059;52.132;21.062;2023-05-16T10:00:11;100006.91;;;28.11;37.53
39341;BME280;25059;52.132;21.062;2023-05-16T10:03:00;99993.50;;;28.18;38.76
39341;BME280;25059;52.132;21.062;2023-05-16T10:05:48;100018.72;;;28.56;37.71
39341;BME280;25059;52.132;21.062;2023-05-16T10:08:37;100034.25;;;29.86;36.32
39341;BME280;25059;52.132;21.062;2023-05-16T10:11:27;100031.94;;;29.47;36.32
39341;BME280;25059;52.132;21.062;2023-05-16T10:14:17;100054.72;;;26.93;38.55
39341;BME280;25059;52.132;21.062;2023-05-16T10:17:07;100044.75;;;28.57;36.89
39341;BME280;25059;52.132;21.062;2023-05-16T10:19:59;100034.69;;;28.28;37.56
39341;BME280;25059;52.132;21.062;2023-05-16T10:22:54;100033.63;;;29.19;37.10
39341;BME280;25059;52.132;21.062;2023-05-16T10:25:40;100045.66;;;29.31;35.67
39341;BME280;25059;52.132;21.062;2023-05-16T10:28:28;100047.91;;;29.27;36.06
39341;BME280;25059;52.132;21.062;2023-05-16T10:31:14;100031.69;;;28.60;37.23
39341;BME280;25059;52.132;21.062;2023-05-16T10:34:06;100039.53;;;28.55;36.90
39341;BME280;25059;52.132;21.062;2023-05-16T10:37:11;100061.53;;;29.34;36.43
39341;BME280;25059;52.132;21.062;2023-05-16T10:40:24;100062.28;;;28.61;37.71
39341;BME280;25059;52.132;21.062;2023-05-16T10:43:25;100069.66;;;28.90;36.61
39341;BME280;25059;52.132;21.062;2023-05-16T10:46:17;100074.72;;;29.37;36.33
39341;BME280;25059;52.132;21.062;2023-05-16T10:49:32;100080.97;;;29.08;36.87
39341;BME280;25059;52.132;21.062;2023-05-16T10:52:17;100058.72;;;28.83;36.95
39341;BME280;25059;52.132;21.062;2023-05-16T10:55:02;100058.34;;;28.86;36.65
39341;BME280;25059;52.132;21.062;2023-05-16T10:57:57;100062.59;;;28.66;36.26
39341;BME280;25059;52.132;21.062;2023-05-16T11:00:46;100062.56;;;29.04;36.21
39341;BME280;25059;52.132;21.062;2023-05-16T11:03:31;100049.47;;;31.29;33.72
39341;BME280;25059;52.132;21.062;2023-05-16T11:06:22;100048.50;;;31.97;33.25
39341;BME280;25059;52.132;21.062;2023-05-16T11:11:59;100059.69;;;29.49;34.82
39341;BME280;25059;52.132;21.062;2023-05-16T11:14:53;100054.25;;;29.49;34.99
39341;BME280;25059;52.132;21.062;2023-05-16T11:17:48;100081.50;;;30.13;33.81
39341;BME280;25059;52.132;21.062;2023-05-16T11:20:36;100079.78;;;30.27;33.89
39341;BME280;25059;52.132;21.062;2023-05-16T11:23:28;100053.81;;;30.18;33.75
39341;BME280;25059;52.132;21.062;2023-05-16T11:26:24;100080.16;;;30.03;34.03
39341;BME280;25059;52.132;21.062;2023-05-16T11:29:22;100078.06;;;29.69;33.91
39341;BME280;25059;52.132;21.062;2023-05-16T11:32:10;100095.31;;;29.82;34.34
39341;BME280;25059;52.132;21.062;2023-05-16T11:34:56;100098.22;;;29.81;34.18
39341;BME280;25059;52.132;21.062;2023-05-16T11:37:44;100094.69;;;30.38;33.87
39341;BME280;25059;52.132;21.062;2023-05-16T11:40:34;100072.09;;;29.95;33.88
39341;BME280;25059;52.132;21.062;2023-05-16T11:43:43;100072.88;;;32.91;31.48
39341;BME280;25059;52.132;21.062;2023-05-16T11:46:30;100084.63;;;33.69;29.15
39341;BME280;25059;52.132;21.062;2023-05-16T11:49:16;100082.63;;;32.06;31.73
39341;BME280;25059;52.132;21.062;2023-05-16T11:52:03;100094.91;;;31.13;32.83
39341;BME280;25059;52.132;21.062;2023-05-16T11:55:07;100119.25;;;29.05;34.56
39341;BME280;25059;52.132;21.062;2023-05-16T11:58:03;100108.25;;;29.66;33.83
39341;BME280;25059;52.132;21.062;2023-05-16T12:00:49;100100.53;;;31.12;32.06
39341;BME280;25059;52.132;21.062;2023-05-16T12:03:41;100095.41;;;31.24;32.53
39341;BME280;25059;52.132;21.062;2023-05-16T12:06:26;100097.38;;;31.71;31.47
39341;BME280;25059;52.132;21.062;2023-05-16T12:09:21;100086.47;;;33.89;29.18
39341;BME280;25059;52.132;21.062;2023-05-16T12:12:08;100089.81;;;36.13;27.22
39341;BME280;25059;52.132;21.062;2023-05-16T12:15:01;100105.03;;;37.28;26.15
39341;BME280;25059;52.132;21.062;2023-05-16T12:17:56;100089.91;;;36.37;25.85
39341;BME280;25059;52.132;21.062;2023-05-16T12:24:01;100084.59;;;38.77;24.10
39341;BME280;25059;52.132;21.062;2023-05-16T12:26:52;100087.34;;;40.79;21.75
39341;BME280;25059;52.132;21.062;2023-05-16T12:29:38;100093.16;;;40.51;21.85
39341;BME280;25059;52.132;21.062;2023-05-16T12:32:27;100103.13;;;41.99;20.59
39341;BME280;25059;52.132;21.062;2023-05-16T12:35:17;100093.44;;;45.34;18.30
39341;BME280;25059;52.132;21.062;2023-05-16T12:38:07;100100.66;;;41.35;19.15
39341;BME280;25059;52.132;21.062;2023-05-16T12:40:57;100091.03;;;40.04;20.76
39341;BME280;25059;52.132;21.062;2023-05-16T12:44:06;100098.06;;;36.25;23.80
39341;BME280;25059;52.132;21.062;2023-05-16T12:47:00;100092.19;;;36.51;24.29
39341;BME280;25059;52.132;21.062;2023-05-16T12:49:54;100077.53;;;33.62;25.79
39341;BME280;25059;52.132;21.062;2023-05-16T12:52:50;100089.16;;;34.58;25.94
39341;BME280;25059;52.132;21.062;2023-05-16T12:55:36;100077.53;;;31.84;28.19
39341;BME280;25059;52.132;21.062;2023-05-16T12:58:27;100091.72;;;32.47;27.73
39341;BME280;25059;52.132;21.062;2023-05-16T13:01:21;100093.69;;;30.88;29.25
39341;BME280;25059;52.132;21.062;2023-05-16T13:04:06;100054.13;;;31.07;29.39
39341;BME280;25059;52.132;21.062;2023-05-16T13:07:22;100091.84;;;32.12;28.93
39341;BME280;25059;52.132;21.062;2023-05-16T13:10:10;100075.78;;;33.74;27.71
39341;BME280;25059;52.132;21.062;2023-05-16T13:12:55;100084.84;;;34.13;27.15
39341;BME280;25059;52.132;21.062;2023-05-16T13:15:44;100082.69;;;33.19;28.59
39341;BME280;25059;52.132;21.062;2023-05-16T13:18:31;100096.97;;;33.85;27.58
39341;BME280;25059;52.132;21.062;2023-05-16T13:21:18;100102.00;;;32.84;28.51
39341;BME280;25059;52.132;21.062;2023-05-16T13:24:04;100098.50;;;34.13;27.62
39341;BME280;25059;52.132;21.062;2023-05-16T13:26:50;100103.06;;;32.90;28.35
39341;BME280;25059;52.132;21.062;2023-05-16T13:29:39;100084.41;;;30.54;30.92
39341;BME280;25059;52.132;21.062;2023-05-16T13:32:25;100087.84;;;30.63;31.19
39341;BME280;25059;52.132;21.062;2023-05-16T13:35:17;100115.63;;;30.23;32.57
39341;BME280;25059;52.132;21.062;2023-05-16T13:38:02;100112.44;;;30.19;32.79
39341;BME280;25059;52.132;21.062;2023-05-16T13:40:47;100115.44;;;30.24;32.58
39341;BME280;25059;52.132;21.062;2023-05-16T13:43:31;100104.97;;;29.11;34.38
39341;BME280;25059;52.132;21.062;2023-05-16T13:46:18;100091.72;;;29.31;34.13
39341;BME280;25059;52.132;21.062;2023-05-16T13:49:03;100108.13;;;29.88;34.05
39341;BME280;25059;52.132;21.062;2023-05-16T13:51:48;100118.91;;;29.52;34.35
39341;BME280;25059;52.132;21.062;2023-05-16T13:54:34;100125.13;;;29.82;33.95
39341;BME280;25059;52.132;21.062;2023-05-16T13:57:24;100101.91;;;31.23;31.66
39341;BME280;25059;52.132;21.062;2023-05-16T14:00:11;100101.47;;;32.08;30.42
39341;BME280;25059;52.132;21.062;2023-05-16T14:02:58;100115.44;;;32.79;29.80
39341;BME280;25059;52.132;21.062;2023-05-16T14:05:45;100096.63;;;31.97;30.43
39341;BME280;25059;52.132;21.062;2023-05-16T14:08:31;100124.41;;;33.32;28.74
39341;BME280;25059;52.132;21.062;2023-05-16T14:11:15;100102.03;;;33.75;28.65
39341;BME280;25059;52.132;21.062;2023-05-16T14:14:04;100106.44;;;33.69;28.51
39341;BME280;25059;52.132;21.062;2023-05-16T14:16:49;100111.38;;;34.37;27.87
39341;BME280;25059;52.132;21.062;2023-05-16T14:19:36;100111.63;;;34.60;27.54
39341;BME280;25059;52.132;21.062;2023-05-16T14:22:22;100108.81;;;37.15;25.07
39341;BME280;25059;52.132;21.062;2023-05-16T14:25:07;100096.31;;;37.07;25.69
39341;BME280;25059;52.132;21.062;2023-05-16T14:27:52;100104.28;;;35.29;26.31
39341;BME280;25059;52.132;21.062;2023-05-16T14:30:37;100101.84;;;35.21;26.62
39341;BME280;25059;52.132;21.062;2023-05-16T14:33:22;100106.16;;;36.62;25.19
39341;BME280;25059;52.132;21.062;2023-05-16T14:36:08;100094.81;;;35.68;25.89
39341;BME280;25059;52.132;21.062;2023-05-16T14:38:52;100090.88;;;35.64;26.32
39341;BME280;25059;52.132;21.062;2023-05-16T14:41:37;100097.66;;;36.40;25.25
39341;BME280;25059;52.132;21.062;2023-05-16T14:44:21;100098.09;;;34.72;26.89
39341;BME280;25059;52.132;21.062;2023-05-16T14:47:07;100101.31;;;34.38;26.89
39341;BME280;25059;52.132;21.062;2023-05-16T14:49:53;100094.59;;;34.90;26.11
39341;BME280;25059;52.132;21.062;2023-05-16T14:52:40;100103.25;;;36.45;24.77
39341;BME280;25059;52.132;21.062;2023-05-16T14:55:25;100093.69;;;37.24;24.60
39341;BME280;25059;52.132;21.062;2023-05-16T14:58:12;100096.41;;;35.76;24.76
39341;BME280;25059;52.132;21.062;2023-05-16T15:01:00;100102.25;;;34.50;25.79
39341;BME280;25059;52.132;21.062;2023-05-16T15:03:46;100094.09;;;35.00;25.32
39341;BME280;25059;52.132;21.062;2023-05-16T15:06:31;100104.91;;;36.99;23.97
39341;BME280;25059;52.132;21.062;2023-05-16T15:09:16;100101.19;;;37.40;24.02
39341;BME280;25059;52.132;21.062;2023-05-16T15:12:04;100108.88;;;36.20;24.01
39341;BME280;25059;52.132;21.062;2023-05-16T15:14:49;100113.25;;;34.05;26.24
39341;BME280;25059;52.132;21.062;2023-05-16T15:17:34;100098.09;;;33.58;26.75
39341;BME280;25059;52.132;21.062;2023-05-16T15:20:23;100114.69;;;33.56;26.74
39341;BME280;25059;52.132;21.062;2023-05-16T15:23:43;100103.41;;;34.36;26.17
39341;BME280;25059;52.132;21.062;2023-05-16T15:26:29;100092.50;;;33.46;27.04
39341;BME280;25059;52.132;21.062;2023-05-16T15:29:14;100089.84;;;33.06;27.12
39341;BME280;25059;52.132;21.062;2023-05-16T15:35:01;100090.91;;;33.83;26.00
39341;BME280;25059;52.132;21.062;2023-05-16T15:37:45;100104.16;;;33.66;26.46
39341;BME280;25059;52.132;21.062;2023-05-16T15:40:30;100103.59;;;34.02;25.89
39341;BME280;25059;52.132;21.062;2023-05-16T15:43:14;100099.44;;;34.88;25.49
39341;BME280;25059;52.132;21.062;2023-05-16T15:45:59;100091.28;;;35.06;24.94
39341;BME280;25059;52.132;21.062;2023-05-16T15:48:43;100086.34;;;35.15;25.39
39341;BME280;25059;52.132;21.062;2023-05-16T15:51:28;100100.94;;;33.12;27.41
39341;BME280;25059;52.132;21.062;2023-05-16T15:54:13;100092.94;;;33.17;26.96
39341;BME280;25059;52.132;21.062;2023-05-16T15:56:57;100101.16;;;32.70;27.45
39341;BME280;25059;52.132;21.062;2023-05-16T15:59:42;100094.84;;;31.69;28.76
39341;BME280;25059;52.132;21.062;2023-05-16T16:02:26;100086.25;;;32.27;28.34
39341;BME280;25059;52.132;21.062;2023-05-16T16:05:11;100079.06;;;32.06;28.74
39341;BME280;25059;52.132;21.062;2023-05-16T16:07:55;100078.31;;;32.91;27.58
39341;BME280;25059;52.132;21.062;2023-05-16T16:10:40;100086.09;;;32.88;27.83
39341;BME280;25059;52.132;21.062;2023-05-16T16:13:24;100089.56;;;33.28;27.65
39341;BME280;25059;52.132;21.062;2023-05-16T16:16:09;100082.94;;;32.84;27.68
39341;BME280;25059;52.132;21.062;2023-05-16T16:18:53;100083.13;;;33.09;27.63
39341;BME280;25059;52.132;21.062;2023-05-16T16:21:37;100078.31;;;33.04;28.13
39341;BME280;25059;52.132;21.062;2023-05-16T16:24:22;100078.53;;;32.50;28.73
39341;BME280;25059;52.132;21.062;2023-05-16T16:27:07;100082.50;;;32.34;29.29
39341;BME280;25059;52.132;21.062;2023-05-16T16:29:51;100085.84;;;32.56;29.32
39341;BME280;25059;52.132;21.062;2023-05-16T16:32:36;100083.78;;;32.78;29.00
39341;BME280;25059;52.132;21.062;2023-05-16T16:35:20;100092.13;;;32.70;29.32
39341;BME280;25059;52.132;21.062;2023-05-16T16:38:07;100075.16;;;32.28;29.68
39341;BME280;25059;52.132;21.062;2023-05-16T16:40:52;100073.09;;;31.69;30.24
39341;BME280;25059;52.132;21.062;2023-05-16T16:43:36;100076.06;;;31.81;30.80
39341;BME280;25059;52.132;21.062;2023-05-16T16:46:23;100087.03;;;32.14;30.57
39341;BME280;25059;52.132;21.062;2023-05-16T16:49:07;100081.59;;;32.14;29.95
39341;BME280;25059;52.132;21.062;2023-05-16T16:51:52;100094.34;;;32.07;30.56
39341;BME280;25059;52.132;21.062;2023-05-16T16:54:36;100093.72;;;32.05;30.18
39341;BME280;25059;52.132;21.062;2023-05-16T16:57:21;100081.78;;;32.12;30.21
39341;BME280;25059;52.132;21.062;2023-05-16T17:00:09;100086.19;;;32.07;30.36
39341;BME280;25059;52.132;21.062;2023-05-16T17:02:55;100081.78;;;32.12;30.61
39341;BME280;25059;52.132;21.062;2023-05-16T17:05:40;100080.97;;;32.12;30.37
39341;BME280;25059;52.132;21.062;2023-05-16T17:08:25;100092.28;;;32.22;30.19
39341;BME280;25059;52.132;21.062;2023-05-16T17:11:10;100086.78;;;32.02;30.12
39341;BME280;25059;52.132;21.062;2023-05-16T17:13:55;100092.78;;;31.78;30.42
39341;BME280;25059;52.132;21.062;2023-05-16T17:16:42;100094.25;;;31.74;30.82
39341;BME280;25059;52.132;21.062;2023-05-16T17:19:27;100093.38;;;32.34;29.90
39341;BME280;25059;52.132;21.062;2023-05-16T17:22:12;100094.44;;;32.60;30.05
39341;BME280;25059;52.132;21.062;2023-05-16T17:24:56;100088.16;;;32.72;29.69
39341;BME280;25059;52.132;21.062;2023-05-16T17:27:41;100099.91;;;32.93;29.76
39341;BME280;25059;52.132;21.062;2023-05-16T17:30:27;100100.72;;;32.60;30.16
39341;BME280;25059;52.132;21.062;2023-05-16T17:33:11;100091.63;;;32.13;30.40
39341;BME280;25059;52.132;21.062;2023-05-16T17:35:56;100106.69;;;32.03;30.66
39341;BME280;25059;52.132;21.062;2023-05-16T17:38:41;100111.09;;;31.63;31.69
39341;BME280;25059;52.132;21.062;2023-05-16T17:41:25;100115.78;;;31.41;31.80
39341;BME280;25059;52.132;21.062;2023-05-16T17:44:10;100122.13;;;30.92;32.75
39341;BME280;25059;52.132;21.062;2023-05-16T17:46:55;100117.63;;;31.06;32.50
39341;BME280;25059;52.132;21.062;2023-05-16T17:49:39;100119.16;;;30.87;32.80